createdAt,value
2022-08-24T00:01:22.255Z,4.63
2022-08-24T00:03:49.579Z,4.63
2022-08-24T00:06:23.313Z,4.03
2022-08-24T00:08:52.533Z,5.45
2022-08-24T00:11:19.783Z,4.40
2022-08-24T00:13:47.382Z,4.22
2022-08-24T00:16:15.638Z,4.05
2022-08-24T00:18:43.258Z,5.03
2022-08-24T00:21:10.063Z,4.70
2022-08-24T00:23:36.917Z,4.83
2022-08-24T00:26:04.512Z,5.45
2022-08-24T00:28:31.555Z,4.80
2022-08-24T00:30:58.712Z,4.95
2022-08-24T00:33:26.453Z,5.67
2022-08-24T00:35:53.296Z,4.70
2022-08-24T00:38:20.041Z,5.00
2022-08-24T00:40:49.552Z,4.90
2022-08-24T00:43:20.545Z,5.13
2022-08-24T00:46:09.972Z,5.10
2022-08-24T00:48:41.617Z,5.20
2022-08-24T00:51:23.818Z,4.30
2022-08-24T00:53:56.036Z,5.60
2022-08-24T00:56:27.398Z,5.13
2022-08-24T00:59:07.376Z,5.25
2022-08-24T01:01:35.371Z,5.10
2022-08-24T01:04:05.305Z,5.53
2022-08-24T01:06:33.459Z,4.80
2022-08-24T01:09:00.897Z,4.70
2022-08-24T01:11:33.916Z,5.47
2022-08-24T01:14:03.000Z,4.30
2022-08-24T01:16:48.786Z,4.67
2022-08-24T01:19:28.833Z,4.83
2022-08-24T01:22:06.996Z,4.47
2022-08-24T01:24:36.147Z,4.13
2022-08-24T01:27:03.779Z,4.90
2022-08-24T01:29:32.233Z,4.43
2022-08-24T01:32:00.024Z,5.17
2022-08-24T01:34:27.377Z,4.40
2022-08-24T01:36:56.763Z,4.63
2022-08-24T01:39:30.513Z,4.90
2022-08-24T01:41:57.756Z,4.70
2022-08-24T01:44:28.623Z,5.10
2022-08-24T01:46:56.613Z,5.33
2022-08-24T01:49:26.563Z,4.50
2022-08-24T01:51:53.417Z,4.47
2022-08-24T01:54:20.560Z,4.73
2022-08-24T01:56:47.659Z,4.27
2022-08-24T01:59:15.880Z,4.90
2022-08-24T02:01:48.503Z,4.47
2022-08-24T02:04:17.692Z,4.80
2022-08-24T02:06:45.715Z,4.47
2022-08-24T02:09:12.972Z,6.03
2022-08-24T02:11:40.670Z,4.50
2022-08-24T02:14:07.780Z,4.23
2022-08-24T02:16:34.934Z,4.57
2022-08-24T02:19:01.699Z,4.47
2022-08-24T02:21:28.882Z,4.53
2022-08-24T02:23:55.753Z,5.00
2022-08-24T02:26:23.071Z,4.60
2022-08-24T02:28:54.242Z,5.10
2022-08-24T02:31:21.942Z,4.67
2022-08-24T02:33:48.751Z,5.00
2022-08-24T02:36:26.053Z,4.70
2022-08-24T02:38:54.882Z,5.53
2022-08-24T02:41:23.667Z,4.80
2022-08-24T02:43:51.596Z,4.80
2022-08-24T02:46:25.712Z,5.50
2022-08-24T02:48:57.995Z,5.03
2022-08-24T02:51:41.590Z,5.00
2022-08-24T02:54:14.125Z,5.33
2022-08-24T02:56:41.067Z,5.23
2022-08-24T02:59:07.846Z,5.27
2022-08-24T03:01:34.946Z,5.60
2022-08-24T03:04:02.298Z,5.07
2022-08-24T03:06:29.092Z,5.37
2022-08-24T03:08:57.046Z,5.57
2022-08-24T03:11:27.935Z,5.53
2022-08-24T03:13:56.330Z,4.90
2022-08-24T03:16:23.147Z,5.30
2022-08-24T03:18:50.023Z,5.70
2022-08-24T03:21:17.457Z,5.40
2022-08-24T03:23:44.599Z,5.47
2022-08-24T03:26:12.227Z,5.67
2022-08-24T03:28:39.296Z,4.93
2022-08-24T03:31:07.019Z,5.57
2022-08-24T03:33:33.834Z,5.80
2022-08-24T03:36:01.175Z,5.47
2022-08-24T03:38:28.531Z,5.27
2022-08-24T03:40:55.797Z,5.40
2022-08-24T03:43:41.197Z,5.37
2022-08-24T03:46:09.124Z,5.20
2022-08-24T03:48:36.666Z,5.10
2022-08-24T03:51:03.973Z,5.63
2022-08-24T03:53:30.710Z,5.47
2022-08-24T03:55:57.490Z,6.10
2022-08-24T03:58:24.319Z,5.80
2022-08-24T04:00:51.440Z,5.37
2022-08-24T04:03:18.703Z,5.63
2022-08-24T04:05:45.591Z,6.20
2022-08-24T04:08:15.056Z,6.17
2022-08-24T04:10:45.421Z,6.73
2022-08-24T04:13:12.660Z,6.90
2022-08-24T04:15:41.844Z,6.70
2022-08-24T04:18:09.693Z,6.07
2022-08-24T04:20:43.780Z,6.00
2022-08-24T04:23:13.122Z,5.83
2022-08-24T04:25:46.583Z,6.17
2022-08-24T04:28:15.842Z,5.90
2022-08-24T04:30:45.114Z,6.27
2022-08-24T04:33:13.731Z,5.70
2022-08-24T04:35:42.835Z,6.27
2022-08-24T04:38:10.008Z,6.17
2022-08-24T04:40:39.954Z,5.63
2022-08-24T04:43:07.323Z,6.67
2022-08-24T04:45:34.512Z,6.10
2022-08-24T04:48:01.496Z,6.50
2022-08-24T04:50:28.405Z,6.13
2022-08-24T04:52:55.168Z,6.47
2022-08-24T04:55:21.942Z,7.83
2022-08-24T04:57:48.674Z,5.87
2022-08-24T05:00:15.798Z,5.57
2022-08-24T05:02:45.059Z,6.20
2022-08-24T05:05:12.525Z,5.93
2022-08-24T05:07:39.647Z,5.77
2022-08-24T05:10:08.915Z,6.20
2022-08-24T05:12:38.633Z,6.20
2022-08-24T05:15:06.383Z,5.70
2022-08-24T05:17:33.262Z,5.73
2022-08-24T05:20:00.370Z,6.27
2022-08-24T05:22:28.118Z,5.60
2022-08-24T05:24:54.925Z,5.50
2022-08-24T05:27:22.729Z,5.60
2022-08-24T05:29:55.138Z,6.10
2022-08-24T05:32:22.029Z,6.43
2022-08-24T05:34:49.267Z,5.77
2022-08-24T05:37:16.034Z,5.70
2022-08-24T05:39:42.926Z,5.50
2022-08-24T05:42:09.760Z,5.93
2022-08-24T05:44:36.580Z,6.30
2022-08-24T05:47:05.905Z,5.90
2022-08-24T05:49:32.680Z,7.03
2022-08-24T05:51:59.953Z,6.33
2022-08-24T05:54:27.074Z,7.00
2022-08-24T05:56:54.816Z,6.77
2022-08-24T05:59:22.664Z,6.83
2022-08-24T06:01:49.728Z,6.70
2022-08-24T06:04:16.828Z,5.93
2022-08-24T06:06:43.578Z,6.03
2022-08-24T06:09:15.523Z,6.27
2022-08-24T06:11:42.608Z,6.03
2022-08-24T06:14:16.135Z,6.53
2022-08-24T06:16:45.525Z,6.43
2022-08-24T06:19:14.287Z,6.13
2022-08-24T06:21:41.738Z,6.93
2022-08-24T06:24:08.803Z,7.17
2022-08-24T06:26:54.867Z,6.87
2022-08-24T06:29:22.145Z,6.13
2022-08-24T06:31:54.302Z,6.70
2022-08-24T06:34:22.225Z,7.40
2022-08-24T06:36:49.006Z,7.03
2022-08-24T06:39:15.814Z,6.83
2022-08-24T06:41:44.168Z,6.17
2022-08-24T06:44:11.058Z,6.50
2022-08-24T06:46:38.300Z,7.50
2022-08-24T06:49:05.607Z,7.77
2022-08-24T06:51:32.644Z,7.00
2022-08-24T06:53:59.971Z,6.87
2022-08-24T06:56:26.746Z,6.73
2022-08-24T06:58:53.475Z,7.33
2022-08-24T07:01:26.299Z,6.78
2022-08-24T07:03:53.479Z,6.63
2022-08-24T07:06:21.292Z,7.38
2022-08-24T07:08:48.114Z,6.97
2022-08-24T07:11:17.649Z,6.15
2022-08-24T07:13:47.576Z,6.47
2022-08-24T07:16:16.484Z,7.45
2022-08-24T07:18:46.065Z,6.03
2022-08-24T07:21:14.488Z,5.03
2022-08-24T07:23:42.858Z,5.78
2022-08-24T07:26:21.519Z,7.00
2022-08-24T07:28:50.908Z,6.47
2022-08-24T07:31:17.827Z,5.82
2022-08-24T07:33:45.120Z,5.70
2022-08-24T07:36:17.017Z,6.05
2022-08-24T07:38:49.333Z,6.50
2022-08-24T07:44:03.651Z,5.38
2022-08-24T07:46:30.866Z,6.80
2022-08-24T07:49:11.673Z,6.30
2022-08-24T07:51:46.850Z,5.07
2022-08-24T07:54:14.794Z,5.93
2022-08-24T07:56:42.717Z,6.40
2022-08-24T07:59:13.322Z,5.25
2022-08-24T08:01:41.083Z,6.10
2022-08-24T08:04:08.356Z,5.45
2022-08-24T08:06:35.444Z,6.22
2022-08-24T08:09:04.834Z,5.20
2022-08-24T08:11:31.924Z,6.22
2022-08-24T08:13:58.671Z,5.15
2022-08-24T08:16:26.247Z,5.10
2022-08-24T08:19:09.284Z,5.70
2022-08-24T08:22:04.122Z,5.13
2022-08-24T08:24:30.882Z,5.05
2022-08-24T08:26:58.027Z,5.90
2022-08-24T08:29:25.643Z,5.68
2022-08-24T08:31:52.779Z,4.53
2022-08-24T08:34:19.838Z,5.00
2022-08-24T08:36:47.305Z,4.30
2022-08-24T08:39:16.449Z,3.90
2022-08-24T08:42:05.045Z,4.57
2022-08-24T08:44:50.893Z,5.57
2022-08-24T08:47:23.711Z,4.60
2022-08-24T08:50:14.610Z,4.13
2022-08-24T08:53:15.459Z,4.68
2022-08-24T08:56:11.649Z,4.35
2022-08-24T08:58:59.437Z,4.88
2022-08-24T09:01:46.787Z,4.15
2022-08-24T09:04:20.943Z,3.95
2022-08-24T09:07:10.196Z,4.22
2022-08-24T09:09:45.975Z,4.95
2022-08-24T09:12:22.100Z,3.90
2022-08-24T09:15:17.371Z,3.58
2022-08-24T09:18:26.067Z,3.55
2022-08-24T09:21:31.128Z,3.90
2022-08-24T09:24:09.879Z,3.22
2022-08-24T09:26:55.401Z,3.33
2022-08-24T09:29:49.873Z,3.15
2022-08-24T09:32:25.560Z,3.33
2022-08-24T09:35:26.701Z,3.15
2022-08-24T09:38:10.381Z,2.95
2022-08-24T09:40:46.146Z,3.33
2022-08-24T09:43:43.478Z,2.67
2022-08-24T09:46:13.230Z,3.03
2022-08-24T09:48:49.042Z,2.90
2022-08-24T09:51:40.425Z,2.50
2022-08-24T09:54:28.964Z,3.03
2022-08-24T09:58:00.588Z,2.65
2022-08-24T10:00:44.867Z,2.90
2022-08-24T10:03:28.917Z,2.67
2022-08-24T10:06:41.271Z,2.83
2022-08-24T10:09:40.907Z,2.80
2022-08-24T10:12:29.404Z,2.97
2022-08-24T10:15:19.542Z,2.45
2022-08-24T10:18:21.728Z,2.72
2022-08-24T10:21:03.584Z,2.53
2022-08-24T10:23:55.165Z,2.47
2022-08-24T10:26:49.158Z,2.55
2022-08-24T10:29:18.897Z,2.80
2022-08-24T10:32:01.333Z,2.50
2022-08-24T10:34:58.732Z,2.60
2022-08-24T10:37:42.426Z,2.55
2022-08-24T10:40:38.752Z,2.40
2022-08-24T10:43:36.649Z,2.08
2022-08-24T10:46:12.452Z,2.20
2022-08-24T10:49:05.841Z,2.50
2022-08-24T10:52:10.418Z,2.30
2022-08-24T10:54:37.559Z,2.20
2022-08-24T10:57:12.319Z,2.65
2022-08-24T11:00:22.563Z,2.30
2022-08-24T11:02:50.398Z,2.08
2022-08-24T11:05:29.675Z,2.05
2022-08-24T11:08:02.597Z,2.03
2022-08-24T11:10:40.728Z,2.10
2022-08-24T11:13:24.666Z,2.45
2022-08-24T11:15:55.297Z,2.33
2022-08-24T11:18:23.228Z,2.20
2022-08-24T11:20:53.723Z,1.90
2022-08-24T11:23:35.867Z,2.17
2022-08-24T11:26:04.250Z,2.80
2022-08-24T11:28:41.058Z,2.58
2022-08-24T11:31:27.381Z,2.17
2022-08-24T11:34:10.662Z,2.15
2022-08-24T11:36:39.547Z,2.60
2022-08-24T11:39:12.566Z,2.22
2022-08-24T11:41:58.524Z,2.33
2022-08-24T11:44:41.105Z,2.55
2022-08-24T11:47:30.925Z,2.05
2022-08-24T11:50:16.130Z,2.28
2022-08-24T11:52:45.957Z,2.13
2022-08-24T11:55:25.994Z,2.67
2022-08-24T11:58:16.277Z,2.33
2022-08-24T12:00:56.887Z,1.95
2022-08-24T12:03:51.881Z,2.17
2022-08-24T12:06:41.429Z,2.42
2022-08-24T12:09:28.162Z,2.35
2022-08-24T12:11:54.852Z,2.22
2022-08-24T12:14:46.360Z,2.80
2022-08-24T12:17:13.127Z,2.50
2022-08-24T12:19:50.223Z,2.25
2022-08-24T12:22:19.804Z,2.17
2022-08-24T12:24:54.452Z,2.35
2022-08-24T12:27:26.578Z,1.98
2022-08-24T12:30:07.369Z,2.30
2022-08-24T12:32:42.533Z,2.10
2022-08-24T12:35:33.791Z,2.38
2022-08-24T12:38:22.957Z,2.30
2022-08-24T12:40:53.758Z,2.22
2022-08-24T12:43:48.918Z,2.30
2022-08-24T12:46:20.683Z,2.30
2022-08-24T12:49:02.735Z,2.10
2022-08-24T12:51:44.101Z,2.17
2022-08-24T12:54:38.215Z,2.33
2022-08-24T12:57:14.415Z,1.88
2022-08-24T12:59:48.266Z,2.13
2022-08-24T13:02:17.829Z,2.00
2022-08-24T13:04:50.666Z,2.35
2022-08-24T13:07:23.498Z,2.20
2022-08-24T13:09:53.414Z,2.30
2022-08-24T13:12:38.520Z,2.30
2022-08-24T13:15:23.659Z,2.35
2022-08-24T13:18:02.267Z,2.40
2022-08-24T13:20:49.820Z,2.03
2022-08-24T13:23:20.730Z,2.13
2022-08-24T13:25:47.529Z,2.30
2022-08-24T13:28:45.586Z,2.30
2022-08-24T13:31:16.096Z,2.13
2022-08-24T13:34:06.455Z,2.30
2022-08-24T13:36:45.999Z,2.25
2022-08-24T13:39:15.602Z,2.00
2022-08-24T13:41:51.760Z,2.30
2022-08-24T13:44:30.525Z,2.00
2022-08-24T13:47:13.305Z,1.90
2022-08-24T13:50:27.151Z,1.80
2022-08-24T13:53:09.217Z,2.03
2022-08-24T13:55:43.673Z,2.30
2022-08-24T13:58:34.428Z,2.35
2022-08-24T14:01:34.744Z,2.10
2022-08-24T14:04:25.733Z,2.15
2022-08-24T14:07:09.563Z,2.15
2022-08-24T14:09:40.803Z,2.38
2022-08-24T14:12:34.621Z,2.30
2022-08-24T14:15:15.864Z,2.20
2022-08-24T14:18:05.213Z,2.00
2022-08-24T14:20:44.198Z,1.98
2022-08-24T14:23:52.097Z,2.15
2022-08-24T14:26:33.801Z,2.08
2022-08-24T14:29:16.045Z,2.45
2022-08-24T14:32:11.951Z,2.65
2022-08-24T14:35:01.686Z,2.10
2022-08-24T14:37:59.606Z,1.90
2022-08-24T14:40:35.122Z,2.25
2022-08-24T14:43:22.288Z,2.10
2022-08-24T14:46:12.354Z,1.73
2022-08-24T14:49:13.886Z,2.10
2022-08-24T14:52:03.949Z,1.88
2022-08-24T14:54:43.967Z,2.20
2022-08-24T14:57:24.216Z,1.90
2022-08-24T15:00:14.200Z,2.13
2022-08-24T15:02:56.036Z,1.95
2022-08-24T15:05:32.090Z,2.22
2022-08-24T15:08:03.985Z,2.38
2022-08-24T15:10:50.695Z,2.00
2022-08-24T15:13:28.633Z,1.90
2022-08-24T15:16:04.975Z,2.08
2022-08-24T15:18:54.645Z,1.90
2022-08-24T15:21:44.452Z,2.30
2022-08-24T15:27:10.356Z,2.42
2022-08-24T15:29:54.366Z,2.10
2022-08-24T15:32:27.897Z,1.95
2022-08-24T15:34:58.305Z,2.40
2022-08-24T15:37:32.884Z,2.05
2022-08-24T15:40:01.339Z,2.22
2022-08-24T15:42:32.116Z,2.08
2022-08-24T15:45:04.237Z,2.10
2022-08-24T15:47:33.110Z,2.20
2022-08-24T15:50:16.373Z,2.17
2022-08-24T15:53:07.773Z,2.30
2022-08-24T15:55:45.023Z,2.22
2022-08-24T15:58:30.675Z,2.00
2022-08-24T16:01:41.601Z,2.10
2022-08-24T16:04:14.885Z,2.10
2022-08-24T16:06:48.418Z,2.22
2022-08-24T16:09:21.354Z,2.38
2022-08-24T16:12:00.608Z,2.42
2022-08-24T16:14:40.701Z,2.10
2022-08-24T16:17:34.793Z,2.30
2022-08-24T16:20:06.088Z,2.30
2022-08-24T16:22:40.466Z,2.30
2022-08-24T16:25:27.117Z,2.03
2022-08-24T16:28:09.990Z,2.20
2022-08-24T16:30:55.943Z,2.85
2022-08-24T16:33:34.571Z,2.05
2022-08-24T16:36:10.366Z,2.20
2022-08-24T16:38:42.582Z,2.20
2022-08-24T16:41:12.127Z,2.20
2022-08-24T16:43:41.477Z,2.30
2022-08-24T16:46:10.937Z,2.13
2022-08-24T16:48:37.930Z,2.20
2022-08-24T16:51:04.899Z,2.33
2022-08-24T16:53:31.929Z,2.20
2022-08-24T16:55:59.341Z,2.30
2022-08-24T16:58:31.980Z,2.60
2022-08-24T17:00:58.976Z,2.30
2022-08-24T17:03:26.125Z,2.20
2022-08-24T17:05:52.887Z,2.03
2022-08-24T17:08:19.676Z,2.22
2022-08-24T17:10:46.929Z,2.40
2022-08-24T17:13:27.655Z,2.55
2022-08-24T17:16:02.274Z,2.50
2022-08-24T17:18:29.291Z,2.53
2022-08-24T17:20:58.480Z,2.50
2022-08-24T17:23:25.251Z,2.72
2022-08-24T17:25:53.968Z,3.15
2022-08-24T17:28:20.912Z,2.22
2022-08-24T17:30:51.373Z,2.35
2022-08-24T17:33:18.640Z,2.22
2022-08-24T17:35:45.669Z,2.60
2022-08-24T17:38:12.581Z,2.38
2022-08-24T17:40:39.390Z,2.20
2022-08-24T17:43:06.378Z,2.40
2022-08-24T17:45:33.527Z,2.47
2022-08-24T17:48:00.306Z,2.45
2022-08-24T17:50:28.518Z,2.40
2022-08-24T17:52:59.074Z,2.67
2022-08-24T17:55:27.836Z,2.53
2022-08-24T17:57:54.662Z,3.13
2022-08-24T18:00:21.636Z,2.30
2022-08-24T18:02:48.381Z,2.28
2022-08-24T18:05:15.293Z,2.35
2022-08-24T18:07:53.613Z,2.20
2022-08-24T18:10:25.075Z,2.42
2022-08-24T18:12:52.208Z,2.33
2022-08-24T18:15:19.231Z,2.42
2022-08-24T18:17:49.407Z,2.47
2022-08-24T18:20:21.117Z,2.67
2022-08-24T18:22:50.738Z,2.42
2022-08-24T18:25:22.881Z,2.45
2022-08-24T18:27:51.915Z,3.00
2022-08-24T18:30:40.613Z,2.80
2022-08-24T18:33:08.503Z,2.85
2022-08-24T18:35:35.645Z,2.80
2022-08-24T18:38:02.603Z,2.85
2022-08-24T18:40:33.247Z,2.90
2022-08-24T18:43:01.843Z,3.15
2022-08-24T18:45:31.326Z,2.85
2022-08-24T18:47:58.593Z,2.70
2022-08-24T18:50:28.731Z,2.67
2022-08-24T18:52:57.436Z,3.30
2022-08-24T18:55:25.314Z,3.45
2022-08-24T18:57:52.536Z,3.00
2022-08-24T19:00:19.927Z,3.35
2022-08-24T19:02:47.562Z,3.70
2022-08-24T19:05:18.640Z,2.95
2022-08-24T19:07:48.282Z,3.20
2022-08-24T19:10:18.987Z,2.85
2022-08-24T19:12:50.175Z,3.17
2022-08-24T19:15:32.618Z,2.53
2022-08-24T19:18:05.328Z,3.05
2022-08-24T19:20:33.893Z,3.08
2022-08-24T19:23:07.167Z,3.17
2022-08-24T19:25:35.275Z,2.92
2022-08-24T19:28:02.377Z,2.90
2022-08-24T19:30:29.255Z,3.25
2022-08-24T19:32:57.783Z,3.00
2022-08-24T19:35:24.749Z,2.60
2022-08-24T19:37:51.566Z,2.97
2022-08-24T19:40:20.998Z,3.10
2022-08-24T19:42:51.098Z,3.35
2022-08-24T19:45:41.506Z,3.10
2022-08-24T19:48:09.148Z,3.50
2022-08-24T19:50:37.131Z,3.38
2022-08-24T19:53:06.021Z,3.17
2022-08-24T19:55:33.459Z,3.20
2022-08-24T19:58:37.301Z,3.78
2022-08-24T20:01:10.208Z,2.90
2022-08-24T20:03:37.056Z,3.63
2022-08-24T20:06:04.829Z,3.42
2022-08-24T20:08:31.700Z,3.92
2022-08-24T20:11:00.493Z,3.78
2022-08-24T20:13:27.963Z,2.90
2022-08-24T20:15:57.251Z,3.60
2022-08-24T20:18:30.852Z,3.40
2022-08-24T20:20:58.559Z,3.70
2022-08-24T20:23:26.191Z,3.47
2022-08-24T20:25:53.421Z,3.08
2022-08-24T20:28:29.420Z,3.53
2022-08-24T20:30:56.707Z,3.20
2022-08-24T20:33:27.655Z,3.08
2022-08-24T20:35:56.337Z,3.72
2022-08-24T20:38:24.224Z,3.20
2022-08-24T20:40:52.069Z,3.65
2022-08-24T20:43:19.719Z,3.22
2022-08-24T20:45:49.091Z,3.15
2022-08-24T20:48:17.399Z,3.40
2022-08-24T20:50:44.246Z,4.35
2022-08-24T20:53:12.263Z,3.55
2022-08-24T20:55:40.609Z,3.30
2022-08-24T20:58:07.846Z,2.97
2022-08-24T21:00:34.729Z,3.72
2022-08-24T21:03:01.563Z,3.90
2022-08-24T21:05:28.399Z,3.60
2022-08-24T21:07:57.827Z,3.40
2022-08-24T21:10:26.742Z,3.17
2022-08-24T21:12:54.378Z,3.63
2022-08-24T21:15:23.136Z,2.95
2022-08-24T21:17:50.383Z,3.72
2022-08-24T21:20:19.214Z,3.47
2022-08-24T21:22:46.282Z,3.33
2022-08-24T21:25:14.545Z,3.40
2022-08-24T21:27:44.456Z,3.25
2022-08-24T21:30:15.208Z,3.50
2022-08-24T21:33:01.295Z,3.15
2022-08-24T21:35:28.183Z,3.10
2022-08-24T21:37:55.417Z,3.40
2022-08-24T21:40:23.326Z,3.90
2022-08-24T21:42:50.232Z,3.10
2022-08-24T21:45:18.944Z,3.28
2022-08-24T21:47:45.998Z,3.42
2022-08-24T21:50:15.999Z,3.35
2022-08-24T21:52:43.357Z,3.40
2022-08-24T21:55:14.852Z,3.42
2022-08-24T21:57:42.362Z,3.42
2022-08-24T22:00:14.194Z,3.75
2022-08-24T22:02:41.248Z,3.53
2022-08-24T22:05:09.097Z,3.72
2022-08-24T22:07:36.681Z,2.88
2022-08-24T22:10:05.159Z,3.00
2022-08-24T22:12:31.956Z,3.30
2022-08-24T22:14:58.708Z,3.50
2022-08-24T22:17:25.637Z,3.30
2022-08-24T22:19:52.389Z,3.35
2022-08-24T22:22:19.230Z,3.45
2022-08-24T22:24:46.164Z,3.40
2022-08-24T22:27:13.202Z,3.70
2022-08-24T22:29:39.999Z,3.50
2022-08-24T22:32:06.890Z,3.80
2022-08-24T22:34:35.948Z,4.15
2022-08-24T22:37:04.543Z,3.70
2022-08-24T22:39:32.001Z,3.30
2022-08-24T22:41:58.872Z,3.40
2022-08-24T22:44:27.883Z,3.45
2022-08-24T22:46:59.258Z,3.20
2022-08-24T22:49:30.709Z,3.38
2022-08-24T22:51:57.746Z,3.33
2022-08-24T22:54:25.587Z,3.13
2022-08-24T22:56:55.187Z,3.63
2022-08-24T22:59:26.980Z,3.20
2022-08-24T23:01:55.388Z,2.63
2022-08-24T23:04:25.739Z,3.03
2022-08-24T23:06:52.788Z,3.22
2022-08-24T23:09:19.611Z,3.05
2022-08-24T23:11:47.045Z,2.95
2022-08-24T23:14:14.653Z,2.72
2022-08-24T23:16:52.579Z,2.67
2022-08-24T23:19:41.812Z,2.92
2022-08-24T23:22:10.850Z,3.20
2022-08-24T23:24:38.965Z,2.63
2022-08-24T23:27:07.376Z,3.17
2022-08-24T23:29:34.646Z,3.13
2022-08-24T23:32:01.473Z,3.30
2022-08-24T23:34:28.675Z,2.90
2022-08-24T23:36:56.185Z,2.72
2022-08-24T23:39:23.007Z,2.70
2022-08-24T23:41:50.796Z,3.33
2022-08-24T23:44:21.983Z,2.95
2022-08-24T23:46:49.447Z,2.92
2022-08-24T23:49:18.207Z,2.88
2022-08-24T23:51:45.095Z,2.58
2022-08-24T23:54:12.302Z,3.03
2022-08-24T23:56:42.593Z,3.28
2022-08-24T23:59:17.235Z,3.00
